createdAt,value
2023-03-11T00:02:22.540Z,10.84
2023-03-11T00:04:49.210Z,10.91
2023-03-11T00:07:15.961Z,10.77
2023-03-11T00:09:42.641Z,10.77
2023-03-11T00:12:09.331Z,10.76
2023-03-11T00:14:36.055Z,10.75
2023-03-11T00:17:02.719Z,10.74
2023-03-11T00:19:29.342Z,10.75
2023-03-11T00:21:56.097Z,10.74
2023-03-11T00:24:22.748Z,10.74
2023-03-11T00:26:49.514Z,10.75
2023-03-11T00:29:16.180Z,10.69
2023-03-11T00:31:42.834Z,10.75
2023-03-11T00:34:09.519Z,10.68
2023-03-11T00:36:36.279Z,10.61
2023-03-11T00:39:07.542Z,10.60
2023-03-11T00:41:34.866Z,10.70
2023-03-11T00:44:01.666Z,10.73
2023-03-11T00:46:31.193Z,10.68
2023-03-11T00:48:58.036Z,10.67
2023-03-11T00:51:24.803Z,10.66
2023-03-11T00:53:51.586Z,10.71
2023-03-11T00:56:18.662Z,10.58
2023-03-11T00:58:45.978Z,10.64
2023-03-11T01:01:21.766Z,10.70
2023-03-11T01:03:48.748Z,10.81
2023-03-11T01:06:16.746Z,10.83
2023-03-11T01:08:43.448Z,10.81
2023-03-11T01:11:10.183Z,10.76
2023-03-11T01:13:37.016Z,10.75
2023-03-11T01:16:03.790Z,10.63
2023-03-11T01:18:30.811Z,10.63
2023-03-11T01:20:57.482Z,10.68
2023-03-11T01:23:24.124Z,10.64
2023-03-11T01:25:50.796Z,10.71
2023-03-11T01:28:17.604Z,10.69
2023-03-11T01:30:44.928Z,10.64
2023-03-11T01:33:18.046Z,10.71
2023-03-11T01:35:46.086Z,10.75
2023-03-11T01:38:13.121Z,10.74
2023-03-11T01:40:48.967Z,10.79
2023-03-11T01:43:41.906Z,10.85
2023-03-11T01:47:00.087Z,10.94
2023-03-11T01:49:33.026Z,10.93
2023-03-11T01:52:08.005Z,10.85
2023-03-11T01:54:41.610Z,10.87
2023-03-11T01:57:13.453Z,10.48
2023-03-11T01:59:47.715Z,10.44
2023-03-11T02:02:35.906Z,10.43
2023-03-11T02:05:04.107Z,10.32
2023-03-11T02:07:31.575Z,10.33
2023-03-11T02:09:59.557Z,9.99
2023-03-11T02:12:31.128Z,9.87
2023-03-11T02:14:58.129Z,10.00
2023-03-11T02:17:25.060Z,10.04
2023-03-11T02:20:06.308Z,10.09
2023-03-11T02:22:33.857Z,10.15
2023-03-11T02:25:07.308Z,10.07
2023-03-11T02:27:37.247Z,9.93
2023-03-11T02:30:07.059Z,9.86
2023-03-11T02:32:37.690Z,9.89
2023-03-11T02:35:05.700Z,9.97
2023-03-11T02:37:32.608Z,9.96
2023-03-11T02:40:27.014Z,9.85
2023-03-11T02:43:05.939Z,9.73
2023-03-11T02:45:35.923Z,9.69
2023-03-11T02:48:03.247Z,9.81
2023-03-11T02:50:32.135Z,9.88
2023-03-11T02:52:58.832Z,9.62
2023-03-11T02:55:25.579Z,9.52
2023-03-11T02:57:52.174Z,9.71
2023-03-11T03:00:19.192Z,9.74
2023-03-11T03:02:53.411Z,9.76
2023-03-11T03:05:21.912Z,9.75
2023-03-11T03:07:51.340Z,9.77
2023-03-11T03:10:20.384Z,9.82
2023-03-11T03:12:47.722Z,9.73
2023-03-11T03:15:16.017Z,9.60
2023-03-11T03:17:44.491Z,9.66
2023-03-11T03:20:13.295Z,9.39
2023-03-11T03:22:44.571Z,9.12
2023-03-11T03:25:14.451Z,8.94
2023-03-11T03:27:41.067Z,9.03
2023-03-11T03:30:08.754Z,9.21
2023-03-11T03:32:36.543Z,9.32
2023-03-11T03:35:05.230Z,9.40
2023-03-11T03:37:55.321Z,9.26
2023-03-11T03:40:23.087Z,9.32
2023-03-11T03:42:51.348Z,9.34
2023-03-11T03:45:19.113Z,9.36
2023-03-11T03:47:46.586Z,9.44
2023-03-11T03:50:13.533Z,9.43
2023-03-11T03:52:44.044Z,9.20
2023-03-11T03:55:11.248Z,9.21
2023-03-11T03:57:38.729Z,9.32
2023-03-11T04:00:10.309Z,9.36
2023-03-11T04:02:45.537Z,9.36
2023-03-11T04:05:22.022Z,9.35
2023-03-11T04:07:48.769Z,9.44
2023-03-11T04:10:15.719Z,9.45
2023-03-11T04:12:43.408Z,9.57
2023-03-11T04:15:10.357Z,9.60
2023-03-11T04:17:38.374Z,9.58
2023-03-11T04:20:10.301Z,9.27
2023-03-11T04:22:37.138Z,9.19
2023-03-11T04:25:05.400Z,9.27
2023-03-11T04:27:33.003Z,9.36
2023-03-11T04:30:00.600Z,9.41
2023-03-11T04:32:27.559Z,9.44
2023-03-11T04:34:54.283Z,9.44
2023-03-11T04:37:20.979Z,9.30
2023-03-11T04:39:47.957Z,9.44
2023-03-11T04:42:15.840Z,9.44
2023-03-11T04:44:43.728Z,9.38
2023-03-11T04:47:10.426Z,9.43
2023-03-11T04:49:37.980Z,9.47
2023-03-11T04:52:04.996Z,9.48
2023-03-11T04:54:31.680Z,9.56
2023-03-11T04:56:58.432Z,9.56
2023-03-11T04:59:25.671Z,9.50
2023-03-11T05:01:52.911Z,9.43
2023-03-11T05:04:19.686Z,9.43
2023-03-11T05:06:46.645Z,9.47
2023-03-11T05:09:13.986Z,9.49
2023-03-11T05:11:41.090Z,9.50
2023-03-11T05:14:08.521Z,9.44
2023-03-11T05:16:35.557Z,9.23
2023-03-11T05:19:25.252Z,9.26
2023-03-11T05:21:52.332Z,9.26
2023-03-11T05:24:19.886Z,8.96
2023-03-11T05:26:48.540Z,9.07
2023-03-11T05:29:15.957Z,8.99
2023-03-11T05:31:43.484Z,9.05
2023-03-11T05:34:10.566Z,9.09
2023-03-11T05:36:37.674Z,9.18
2023-03-11T05:39:05.190Z,9.28
2023-03-11T05:41:34.358Z,9.30
2023-03-11T05:44:01.701Z,9.26
2023-03-11T05:46:28.446Z,9.05
2023-03-11T05:48:55.900Z,9.02
2023-03-11T05:51:22.904Z,9.12
2023-03-11T05:53:49.666Z,9.19
2023-03-11T05:56:23.712Z,9.19
2023-03-11T05:58:53.119Z,9.29
2023-03-11T06:01:20.836Z,9.32
2023-03-11T06:03:48.104Z,9.35
2023-03-11T06:06:15.113Z,9.32
2023-03-11T06:08:46.028Z,9.21
2023-03-11T06:11:13.092Z,9.07
2023-03-11T06:13:40.074Z,9.08
2023-03-11T06:16:09.726Z,9.13
2023-03-11T06:18:36.718Z,9.40
2023-03-11T06:21:05.527Z,9.82
2023-03-11T06:23:33.085Z,10.15
2023-03-11T06:26:04.071Z,10.37
2023-03-11T06:28:35.666Z,10.45
2023-03-11T06:31:11.059Z,10.51
2023-03-11T06:33:38.349Z,10.59
2023-03-11T06:36:06.640Z,10.62
2023-03-11T06:38:37.301Z,10.59
2023-03-11T06:41:06.341Z,10.64
2023-03-11T06:43:35.725Z,10.64
2023-03-11T06:46:09.836Z,10.63
2023-03-11T06:48:36.874Z,10.67
2023-03-11T06:51:04.111Z,10.80
2023-03-11T06:53:32.614Z,10.80
2023-03-11T06:56:05.677Z,10.80
2023-03-11T06:58:38.776Z,10.91
2023-03-11T07:01:13.316Z,10.95
2023-03-11T07:03:40.429Z,10.91
2023-03-11T07:06:11.421Z,11.02
2023-03-11T07:08:38.310Z,11.00
2023-03-11T07:11:27.301Z,11.06
2023-03-11T07:14:00.482Z,11.05
2023-03-11T07:16:31.106Z,11.29
2023-03-11T07:19:05.062Z,11.35
2023-03-11T07:21:32.730Z,11.46
2023-03-11T07:24:01.774Z,11.57
2023-03-11T07:26:29.612Z,11.63
2023-03-11T07:28:57.479Z,11.73
2023-03-11T07:31:30.329Z,11.83
2023-03-11T07:33:58.939Z,11.91
2023-03-11T07:36:26.424Z,11.91
2023-03-11T07:39:04.448Z,11.92
2023-03-11T07:41:33.536Z,11.99
2023-03-11T07:44:01.601Z,12.08
2023-03-11T07:46:29.915Z,12.13
2023-03-11T07:48:56.651Z,12.30
2023-03-11T07:51:25.975Z,12.39
2023-03-11T07:53:54.419Z,12.43
2023-03-11T07:56:23.682Z,12.51
2023-03-11T07:58:51.394Z,12.56
2023-03-11T08:01:21.348Z,12.52
2023-03-11T08:03:51.055Z,12.63
2023-03-11T08:06:20.530Z,12.61
2023-03-11T08:08:48.480Z,12.62
2023-03-11T08:11:16.602Z,12.59
2023-03-11T08:13:44.908Z,12.56
2023-03-11T08:16:15.434Z,12.58
2023-03-11T08:18:43.050Z,12.62
2023-03-11T08:21:12.816Z,12.62
2023-03-11T08:23:39.671Z,12.75
2023-03-11T08:26:08.678Z,12.85
2023-03-11T08:28:35.561Z,12.87
2023-03-11T08:31:02.871Z,12.91
2023-03-11T08:33:29.756Z,12.93
2023-03-11T08:35:56.776Z,12.97
2023-03-11T08:38:23.691Z,12.97
2023-03-11T08:40:50.326Z,13.05
2023-03-11T08:43:17.058Z,13.11
2023-03-11T08:45:44.118Z,13.20
2023-03-11T08:48:12.493Z,13.31
2023-03-11T08:50:53.999Z,13.35
2023-03-11T08:53:22.868Z,13.48
2023-03-11T08:55:51.294Z,13.56
2023-03-11T08:58:18.802Z,13.58
2023-03-11T09:00:46.234Z,13.53
2023-03-11T09:03:13.690Z,13.36
2023-03-11T09:05:40.919Z,13.44
2023-03-11T09:08:07.986Z,13.54
2023-03-11T09:10:34.756Z,13.55
2023-03-11T09:13:01.841Z,13.58
2023-03-11T09:15:28.567Z,13.42
2023-03-11T09:17:55.839Z,13.32
2023-03-11T09:20:22.762Z,13.28
2023-03-11T09:22:49.499Z,13.19
2023-03-11T09:25:16.480Z,13.33
2023-03-11T09:27:43.293Z,13.32
2023-03-11T09:30:10.676Z,13.32
2023-03-11T09:32:37.572Z,13.34
2023-03-11T09:35:04.958Z,13.37
2023-03-11T09:37:31.963Z,13.35
2023-03-11T09:39:58.624Z,13.29
2023-03-11T09:42:34.411Z,13.31
2023-03-11T09:45:03.883Z,13.36
2023-03-11T09:47:59.890Z,13.35
2023-03-11T09:50:41.285Z,13.42
2023-03-11T09:53:49.811Z,13.42
2023-03-11T09:56:20.161Z,13.52
2023-03-11T09:58:56.321Z,13.55
2023-03-11T10:01:40.538Z,13.63
2023-03-11T10:04:16.196Z,13.71
2023-03-11T10:06:46.024Z,13.85
2023-03-11T10:09:12.850Z,13.90
2023-03-11T10:11:53.327Z,14.01
2023-03-11T10:14:34.202Z,14.16
2023-03-11T10:17:05.923Z,14.28
2023-03-11T10:20:04.980Z,14.34
2023-03-11T10:22:41.610Z,14.37
2023-03-11T10:25:14.175Z,14.49
2023-03-11T10:27:48.079Z,14.51
2023-03-11T10:30:29.687Z,14.57
2023-03-11T10:33:22.533Z,14.60
2023-03-11T10:35:54.471Z,14.65
2023-03-11T10:38:33.354Z,14.75
2023-03-11T10:41:04.579Z,14.79
2023-03-11T10:43:39.981Z,14.77
2023-03-11T10:46:18.830Z,14.75
2023-03-11T10:48:45.515Z,14.75
2023-03-11T10:51:22.694Z,14.76
2023-03-11T10:53:54.128Z,14.79
2023-03-11T10:56:28.385Z,14.84
2023-03-11T10:58:56.156Z,14.85
2023-03-11T11:01:23.382Z,14.80
2023-03-11T11:03:55.969Z,14.92
2023-03-11T11:06:29.808Z,14.92
2023-03-11T11:09:06.529Z,14.92
2023-03-11T11:11:35.702Z,14.89
2023-03-11T11:14:02.386Z,14.93
2023-03-11T11:16:29.610Z,14.99
2023-03-11T11:19:08.372Z,15.02
2023-03-11T11:21:43.563Z,15.02
2023-03-11T11:24:26.197Z,15.03
2023-03-11T11:27:11.581Z,15.11
2023-03-11T11:29:38.490Z,15.13
2023-03-11T11:32:31.184Z,15.20
2023-03-11T11:35:12.053Z,15.28
2023-03-11T11:37:46.353Z,15.30
2023-03-11T11:40:16.473Z,15.32
2023-03-11T11:42:51.502Z,15.42
2023-03-11T11:45:36.903Z,15.47
2023-03-11T11:48:27.079Z,15.55
2023-03-11T11:50:59.562Z,15.46
2023-03-11T11:53:39.863Z,15.56
2023-03-11T11:56:06.672Z,15.60
2023-03-11T11:58:34.839Z,15.67
2023-03-11T12:01:14.244Z,15.70
2023-03-11T12:04:02.382Z,15.82
2023-03-11T12:06:43.983Z,15.87
2023-03-11T12:09:35.162Z,15.93
2023-03-11T12:12:08.130Z,15.98
2023-03-11T12:14:43.785Z,15.94
2023-03-11T12:17:13.428Z,16.05
2023-03-11T12:19:47.968Z,16.07
2023-03-11T12:22:17.500Z,16.09
2023-03-11T12:25:00.885Z,16.18
2023-03-11T12:27:40.178Z,16.23
2023-03-11T12:30:32.734Z,16.28
2023-03-11T12:33:20.648Z,16.36
2023-03-11T12:35:52.396Z,16.24
2023-03-11T12:38:23.621Z,16.34
2023-03-11T12:40:58.817Z,16.37
2023-03-11T12:43:33.531Z,16.44
2023-03-11T12:46:02.351Z,16.48
2023-03-11T12:48:49.784Z,16.48
2023-03-11T12:51:33.652Z,16.47
2023-03-11T12:54:49.356Z,16.57
2023-03-11T12:57:16.079Z,16.62
2023-03-11T12:59:57.665Z,16.59
2023-03-11T13:02:43.885Z,16.62
2023-03-11T13:05:41.394Z,16.66
2023-03-11T13:08:27.144Z,16.57
2023-03-11T13:10:55.857Z,16.67
2023-03-11T13:13:25.265Z,16.77
2023-03-11T13:15:52.898Z,16.83
2023-03-11T13:18:24.411Z,16.80
2023-03-11T13:21:01.691Z,16.85
2023-03-11T13:23:36.411Z,16.96
2023-03-11T13:26:20.685Z,16.98
2023-03-11T13:29:18.350Z,16.95
2023-03-11T13:32:25.115Z,17.04
2023-03-11T13:35:03.793Z,17.11
2023-03-11T13:37:49.046Z,17.00
2023-03-11T13:40:26.318Z,17.02
2023-03-11T13:42:57.663Z,17.00
2023-03-11T13:45:27.696Z,17.11
2023-03-11T13:48:00.729Z,17.12
2023-03-11T13:50:35.526Z,17.18
2023-03-11T13:53:09.644Z,17.26
2023-03-11T13:55:45.097Z,17.31
2023-03-11T13:58:23.409Z,17.38
2023-03-11T14:00:56.005Z,17.29
2023-03-11T14:03:25.507Z,17.35
2023-03-11T14:06:05.049Z,17.38
2023-03-11T14:08:37.519Z,17.36
2023-03-11T14:11:16.189Z,17.43
2023-03-11T14:13:50.219Z,17.47
2023-03-11T14:16:24.697Z,17.43
2023-03-11T14:19:15.411Z,17.50
2023-03-11T14:21:43.589Z,17.52
2023-03-11T14:24:24.024Z,17.48
2023-03-11T14:26:55.744Z,17.51
2023-03-11T14:29:43.324Z,17.54
2023-03-11T14:32:17.887Z,17.54
2023-03-11T14:34:45.994Z,17.57
2023-03-11T14:37:31.236Z,17.59
2023-03-11T14:39:58.196Z,17.63
2023-03-11T14:42:43.708Z,17.54
2023-03-11T14:45:17.071Z,17.64
2023-03-11T14:47:50.692Z,17.76
2023-03-11T14:50:20.900Z,17.73
2023-03-11T14:53:09.361Z,17.73
2023-03-11T14:55:51.070Z,17.79
2023-03-11T14:58:29.269Z,17.79
2023-03-11T15:01:22.682Z,17.63
2023-03-11T15:04:06.839Z,17.59
2023-03-11T15:06:35.838Z,17.58
2023-03-11T15:09:13.370Z,17.55
2023-03-11T15:11:59.182Z,17.51
2023-03-11T15:14:31.934Z,17.63
2023-03-11T15:17:34.888Z,17.71
2023-03-11T15:20:29.363Z,17.80
2023-03-11T15:23:02.404Z,17.87
2023-03-11T15:25:34.645Z,17.94
2023-03-11T15:28:25.234Z,18.11
2023-03-11T15:31:31.069Z,18.17
2023-03-11T15:34:16.890Z,18.10
2023-03-11T15:36:49.294Z,18.05
2023-03-11T15:39:42.017Z,17.80
2023-03-11T15:42:08.817Z,17.74
2023-03-11T15:44:53.654Z,17.85
2023-03-11T15:47:22.994Z,17.91
2023-03-11T15:49:50.432Z,17.86
2023-03-11T15:52:19.224Z,17.70
2023-03-11T15:54:55.171Z,17.51
2023-03-11T15:57:27.308Z,17.37
2023-03-11T15:59:56.265Z,17.25
2023-03-11T16:02:26.178Z,17.22
2023-03-11T16:04:53.324Z,17.17
2023-03-11T16:07:36.547Z,17.15
2023-03-11T16:10:05.892Z,17.16
2023-03-11T16:12:32.663Z,17.18
2023-03-11T16:14:59.333Z,17.33
2023-03-11T16:17:26.609Z,17.37
2023-03-11T16:19:55.318Z,17.33
2023-03-11T16:22:31.276Z,17.29
2023-03-11T16:24:59.783Z,17.28
2023-03-11T16:27:27.493Z,17.40
2023-03-11T16:29:54.115Z,17.42
2023-03-11T16:32:20.933Z,17.27
2023-03-11T16:34:47.618Z,17.14
2023-03-11T16:37:16.726Z,17.00
2023-03-11T16:39:43.457Z,16.81
2023-03-11T16:42:10.125Z,16.81
2023-03-11T16:44:36.848Z,16.74
2023-03-11T16:47:03.550Z,16.61
2023-03-11T16:49:30.417Z,16.50
2023-03-11T16:51:57.017Z,16.44
2023-03-11T16:54:23.724Z,16.28
2023-03-11T16:56:50.307Z,16.22
2023-03-11T16:59:17.001Z,16.18
2023-03-11T17:01:43.678Z,16.13
2023-03-11T17:04:10.463Z,16.10
2023-03-11T17:06:37.114Z,16.07
2023-03-11T17:09:06.684Z,16.08
2023-03-11T17:11:34.433Z,16.03
2023-03-11T17:14:15.551Z,16.02
2023-03-11T17:16:44.638Z,15.96
2023-03-11T17:19:11.513Z,15.98
2023-03-11T17:21:38.138Z,15.93
2023-03-11T17:24:05.403Z,15.87
2023-03-11T17:26:32.201Z,15.80
2023-03-11T17:28:59.331Z,15.82
2023-03-11T17:31:26.131Z,15.79
2023-03-11T17:33:52.854Z,15.80
2023-03-11T17:36:20.341Z,15.67
2023-03-11T17:38:48.181Z,15.59
2023-03-11T17:41:17.265Z,15.57
2023-03-11T17:43:44.943Z,15.56
2023-03-11T17:46:14.517Z,15.63
2023-03-11T17:48:42.445Z,15.58
2023-03-11T17:51:11.714Z,15.55
2023-03-11T17:53:39.935Z,15.51
2023-03-11T17:56:08.008Z,15.46
2023-03-11T17:58:35.652Z,15.43
2023-03-11T18:01:07.689Z,15.35
2023-03-11T18:03:34.557Z,15.32
2023-03-11T18:06:03.310Z,15.31
2023-03-11T18:08:32.101Z,15.31
2023-03-11T18:11:01.971Z,15.25
2023-03-11T18:13:29.780Z,15.21
2023-03-11T18:16:01.662Z,15.24
2023-03-11T18:18:29.916Z,15.30
2023-03-11T18:21:04.773Z,15.30
2023-03-11T18:23:34.781Z,15.21
2023-03-11T18:26:04.997Z,15.20
2023-03-11T18:28:32.036Z,15.22
2023-03-11T18:31:16.052Z,15.17
2023-03-11T18:33:47.699Z,15.10
2023-03-11T18:36:20.903Z,15.15
2023-03-11T18:38:48.878Z,15.04
2023-03-11T18:41:16.069Z,15.03
2023-03-11T18:43:42.952Z,14.94
2023-03-11T18:46:13.305Z,14.96
2023-03-11T18:48:40.274Z,14.97
2023-03-11T18:51:08.984Z,15.00
2023-03-11T18:53:36.171Z,15.00
2023-03-11T18:56:06.062Z,15.00
2023-03-11T18:58:33.548Z,15.00
2023-03-11T19:01:06.292Z,15.01
2023-03-11T19:03:33.402Z,14.95
2023-03-11T19:06:00.372Z,14.82
2023-03-11T19:08:27.397Z,14.82
2023-03-11T19:10:54.161Z,14.77
2023-03-11T19:13:20.919Z,14.67
2023-03-11T19:15:47.724Z,14.69
2023-03-11T19:18:14.414Z,14.67
2023-03-11T19:20:41.043Z,14.72
2023-03-11T19:23:07.864Z,14.65
2023-03-11T19:25:35.078Z,14.52
2023-03-11T19:28:02.847Z,14.43
2023-03-11T19:30:29.876Z,14.33
2023-03-11T19:32:56.712Z,14.27
2023-03-11T19:35:23.836Z,14.31
2023-03-11T19:37:57.027Z,14.42
2023-03-11T19:40:26.084Z,14.43
2023-03-11T19:42:52.792Z,14.40
2023-03-11T19:45:19.549Z,14.40
2023-03-11T19:47:50.700Z,14.40
2023-03-11T19:50:18.306Z,14.34
2023-03-11T19:52:45.389Z,14.45
2023-03-11T19:55:12.493Z,14.38
2023-03-11T19:57:39.120Z,14.48
2023-03-11T20:00:06.740Z,14.38
2023-03-11T20:02:33.491Z,14.39
2023-03-11T20:05:00.412Z,14.42
2023-03-11T20:07:27.309Z,14.41
2023-03-11T20:09:54.078Z,14.29
2023-03-11T20:12:20.739Z,14.29
2023-03-11T20:14:47.481Z,14.24
2023-03-11T20:17:14.727Z,14.28
2023-03-11T20:19:41.615Z,14.27
2023-03-11T20:22:08.252Z,14.18
2023-03-11T20:24:35.037Z,14.17
2023-03-11T20:27:01.614Z,14.16
2023-03-11T20:29:28.559Z,14.13
2023-03-11T20:31:55.362Z,14.06
2023-03-11T20:34:22.292Z,14.07
2023-03-11T20:36:50.810Z,14.09
2023-03-11T20:39:17.741Z,14.01
2023-03-11T20:41:44.484Z,14.00
2023-03-11T20:44:13.682Z,14.04
2023-03-11T20:46:59.169Z,14.04
2023-03-11T20:49:25.974Z,14.05
2023-03-11T20:51:52.666Z,13.98
2023-03-11T20:54:19.839Z,13.98
2023-03-11T20:56:46.667Z,13.95
2023-03-11T20:59:16.368Z,13.92
2023-03-11T21:01:43.639Z,13.86
2023-03-11T21:04:10.549Z,13.84
2023-03-11T21:06:39.556Z,13.82
2023-03-11T21:09:11.040Z,13.70
2023-03-11T21:11:38.063Z,13.76
2023-03-11T21:14:06.111Z,13.81
2023-03-11T21:16:33.455Z,13.89
2023-03-11T21:19:05.213Z,13.90
2023-03-11T21:21:32.219Z,13.81
2023-03-11T21:23:58.976Z,13.89
2023-03-11T21:26:25.895Z,13.91
2023-03-11T21:28:52.604Z,13.94
2023-03-11T21:31:22.100Z,13.88
2023-03-11T21:33:52.201Z,13.78
2023-03-11T21:36:19.266Z,13.77
2023-03-11T21:38:47.460Z,13.80
2023-03-11T21:41:15.845Z,13.75
2023-03-11T21:43:43.558Z,13.78
2023-03-11T21:46:13.357Z,13.78
2023-03-11T21:48:40.421Z,13.78
2023-03-11T21:51:07.895Z,13.76
2023-03-11T21:53:35.618Z,13.75
2023-03-11T21:56:03.837Z,13.70
2023-03-11T21:58:31.432Z,13.63
2023-03-11T22:00:58.191Z,13.52
2023-03-11T22:03:25.116Z,13.33
2023-03-11T22:06:02.354Z,13.10
2023-03-11T22:08:29.164Z,12.99
2023-03-11T22:10:56.063Z,12.92
2023-03-11T22:13:23.631Z,12.88
2023-03-11T22:15:50.564Z,12.83
2023-03-11T22:18:17.642Z,12.69
2023-03-11T22:20:44.961Z,12.62
2023-03-11T22:23:11.803Z,12.61
2023-03-11T22:25:38.450Z,12.49
2023-03-11T22:28:05.471Z,12.50
2023-03-11T22:30:32.186Z,12.48
2023-03-11T22:32:59.062Z,12.44
2023-03-11T22:35:25.703Z,12.36
2023-03-11T22:37:52.429Z,12.35
2023-03-11T22:40:19.148Z,12.16
2023-03-11T22:42:45.801Z,12.15
2023-03-11T22:45:12.435Z,12.20
2023-03-11T22:47:39.047Z,12.22
2023-03-11T22:50:05.901Z,12.11
2023-03-11T22:52:32.546Z,12.04
2023-03-11T22:54:59.194Z,11.99
2023-03-11T22:57:25.865Z,12.00
2023-03-11T22:59:52.548Z,11.96
2023-03-11T23:02:19.280Z,11.81
2023-03-11T23:04:46.229Z,11.86
2023-03-11T23:07:13.037Z,11.76
2023-03-11T23:09:39.743Z,11.77
2023-03-11T23:12:07.127Z,11.68
2023-03-11T23:14:44.599Z,11.61
2023-03-11T23:17:12.627Z,11.71
2023-03-11T23:19:39.314Z,11.69
2023-03-11T23:22:07.014Z,11.67
2023-03-11T23:24:34.152Z,11.72
2023-03-11T23:27:04.626Z,11.66
2023-03-11T23:29:32.267Z,11.70
2023-03-11T23:31:59.190Z,11.61
2023-03-11T23:34:26.143Z,11.54
2023-03-11T23:36:52.744Z,11.48
2023-03-11T23:39:19.472Z,11.36
2023-03-11T23:41:46.043Z,11.30
2023-03-11T23:44:14.314Z,11.30
2023-03-11T23:46:40.949Z,11.25
2023-03-11T23:49:07.597Z,11.14
2023-03-11T23:51:34.265Z,10.83
2023-03-11T23:54:01.010Z,10.62
2023-03-11T23:56:28.007Z,10.68
2023-03-11T23:58:54.736Z,10.82
